createdAt,value
2023-02-11T00:02:19.567Z,34.40
2023-02-11T00:05:07.076Z,35.72
2023-02-11T00:07:54.187Z,33.10
2023-02-11T00:10:41.922Z,33.72
2023-02-11T00:13:29.604Z,32.78
2023-02-11T00:16:19.968Z,33.42
2023-02-11T00:19:08.949Z,33.45
2023-02-11T00:21:56.586Z,33.30
2023-02-11T00:24:44.275Z,32.43
2023-02-11T00:27:31.838Z,32.55
2023-02-11T00:30:19.540Z,32.75
2023-02-11T00:33:06.933Z,32.33
2023-02-11T00:35:55.924Z,31.67
2023-02-11T00:38:44.319Z,32.17
2023-02-11T00:41:32.497Z,31.50
2023-02-11T00:44:20.556Z,30.50
2023-02-11T00:47:08.050Z,31.48
2023-02-11T00:49:55.614Z,30.38
2023-02-11T00:52:44.620Z,30.52
2023-02-11T00:55:32.184Z,31.08
2023-02-11T00:58:19.991Z,30.90
2023-02-11T01:01:07.997Z,30.80
2023-02-11T01:03:55.551Z,31.17
2023-02-11T01:06:45.727Z,30.45
2023-02-11T01:09:40.172Z,28.95
2023-02-11T01:12:30.684Z,29.97
2023-02-11T01:15:23.081Z,30.83
2023-02-11T01:18:13.580Z,30.30
2023-02-11T01:21:03.815Z,29.50
2023-02-11T01:23:54.085Z,30.05
2023-02-11T01:26:45.716Z,30.40
2023-02-11T01:29:36.016Z,30.50
2023-02-11T01:32:26.517Z,30.85
2023-02-11T01:35:16.457Z,30.48
2023-02-11T01:38:06.410Z,29.65
2023-02-11T01:40:58.320Z,30.25
2023-02-11T01:43:52.336Z,31.17
2023-02-11T01:46:43.189Z,30.42
2023-02-11T01:49:37.284Z,29.95
2023-02-11T01:52:32.571Z,29.83
2023-02-11T01:55:39.181Z,29.80
2023-02-11T01:58:31.260Z,29.95
2023-02-11T02:01:25.775Z,30.60
2023-02-11T02:04:14.823Z,30.85
2023-02-11T02:07:07.686Z,30.17
2023-02-11T02:10:03.045Z,30.15
2023-02-11T02:12:50.789Z,31.40
2023-02-11T02:15:39.469Z,30.00
2023-02-11T02:18:38.917Z,30.13
2023-02-11T02:22:06.254Z,32.28
2023-02-11T02:25:06.099Z,30.40
2023-02-11T02:27:59.929Z,30.77
2023-02-11T02:31:10.340Z,31.50
2023-02-11T02:34:04.861Z,31.83
2023-02-11T02:36:58.384Z,31.60
2023-02-11T02:39:49.495Z,31.70
2023-02-11T02:42:37.571Z,31.33
2023-02-11T02:45:25.389Z,31.63
2023-02-11T02:48:26.191Z,31.98
2023-02-11T02:51:31.838Z,31.30
2023-02-11T02:54:30.640Z,33.13
2023-02-11T02:57:30.062Z,31.60
2023-02-11T03:00:25.750Z,31.33
2023-02-11T03:03:24.753Z,31.67
2023-02-11T03:06:18.736Z,32.03
2023-02-11T03:09:11.938Z,31.88
2023-02-11T03:12:01.604Z,31.80
2023-02-11T03:14:50.423Z,31.57
2023-02-11T03:17:41.922Z,31.60
2023-02-11T03:20:31.598Z,30.85
2023-02-11T03:23:23.763Z,32.58
2023-02-11T03:26:18.467Z,32.55
2023-02-11T03:29:11.437Z,31.98
2023-02-11T03:32:05.726Z,32.60
2023-02-11T03:34:57.516Z,32.25
2023-02-11T03:37:52.130Z,32.13
2023-02-11T03:40:41.398Z,30.83
2023-02-11T03:43:35.756Z,33.25
2023-02-11T03:46:28.512Z,30.65
2023-02-11T03:49:20.160Z,32.80
2023-02-11T03:52:11.318Z,32.25
2023-02-11T03:55:03.898Z,32.45
2023-02-11T03:57:51.180Z,32.33
2023-02-11T04:00:42.135Z,33.00
2023-02-11T04:03:29.800Z,33.70
2023-02-11T04:06:17.297Z,34.30
2023-02-11T04:09:05.315Z,34.47
2023-02-11T04:11:52.808Z,34.35
2023-02-11T04:14:40.456Z,34.65
2023-02-11T04:17:29.303Z,34.60
2023-02-11T04:20:16.572Z,36.47
2023-02-11T04:23:03.700Z,37.45
2023-02-11T04:25:51.691Z,36.50
2023-02-11T04:28:39.531Z,37.03
2023-02-11T04:31:26.912Z,36.95
2023-02-11T04:34:16.352Z,36.53
2023-02-11T04:37:03.684Z,37.28
2023-02-11T04:39:51.338Z,37.80
2023-02-11T04:42:39.141Z,36.92
2023-02-11T04:45:26.478Z,37.67
2023-02-11T04:48:14.400Z,36.47
2023-02-11T04:51:04.101Z,37.20
2023-02-11T04:53:51.484Z,35.92
2023-02-11T04:56:39.022Z,35.47
2023-02-11T04:59:26.388Z,37.33
2023-02-11T05:02:13.569Z,37.13
2023-02-11T05:05:01.183Z,37.65
2023-02-11T05:07:50.186Z,37.42
2023-02-11T05:10:37.634Z,36.83
2023-02-11T05:13:24.963Z,36.40
2023-02-11T05:16:12.860Z,37.00
2023-02-11T05:19:00.342Z,35.10
2023-02-11T05:22:01.809Z,35.53
2023-02-11T05:24:51.454Z,36.65
2023-02-11T05:27:39.030Z,35.85
2023-02-11T05:30:26.734Z,37.05
2023-02-11T05:33:14.238Z,35.80
2023-02-11T05:36:02.472Z,35.80
2023-02-11T05:38:51.007Z,37.25
2023-02-11T05:41:40.073Z,36.55
2023-02-11T05:44:27.699Z,36.93
2023-02-11T05:47:15.244Z,37.13
2023-02-11T05:50:02.922Z,36.80
2023-02-11T05:52:50.461Z,35.38
2023-02-11T05:55:37.986Z,35.00
2023-02-11T05:58:26.638Z,33.88
2023-02-11T06:01:14.160Z,34.85
2023-02-11T06:04:01.646Z,32.90
2023-02-11T06:06:49.104Z,32.47
2023-02-11T06:09:37.718Z,33.47
2023-02-11T06:12:25.172Z,31.70
2023-02-11T06:15:14.167Z,33.93
2023-02-11T06:18:01.556Z,32.10
2023-02-11T06:20:48.905Z,31.67
2023-02-11T06:23:35.966Z,31.27
2023-02-11T06:26:25.421Z,31.65
2023-02-11T06:29:13.019Z,31.30
2023-02-11T06:32:01.873Z,28.93
2023-02-11T06:34:49.306Z,31.08
2023-02-11T06:37:36.843Z,29.38
2023-02-11T06:40:24.252Z,29.80
2023-02-11T06:43:11.535Z,29.10
2023-02-11T06:45:59.165Z,27.48
2023-02-11T06:48:48.288Z,27.30
2023-02-11T06:51:35.786Z,28.67
2023-02-11T06:54:23.540Z,29.15
2023-02-11T06:57:10.835Z,28.20
2023-02-11T06:59:58.434Z,30.13
2023-02-11T07:02:45.966Z,30.20
2023-02-11T07:05:35.176Z,29.25
2023-02-11T07:08:22.817Z,30.42
2023-02-11T07:11:12.247Z,30.48
2023-02-11T07:14:03.459Z,30.20
2023-02-11T07:16:50.793Z,33.13
2023-02-11T07:19:38.439Z,33.45
2023-02-11T07:22:27.356Z,35.28
2023-02-11T07:25:14.951Z,35.67
2023-02-11T07:28:02.579Z,36.90
2023-02-11T07:30:50.037Z,42.20
2023-02-11T07:33:38.196Z,42.75
2023-02-11T07:36:25.701Z,37.15
2023-02-11T07:39:14.587Z,41.42
2023-02-11T07:42:02.265Z,40.33
2023-02-11T07:44:50.663Z,46.90
2023-02-11T07:47:38.919Z,40.03
2023-02-11T07:50:26.471Z,42.53
2023-02-11T07:53:14.166Z,38.45
2023-02-11T07:56:04.005Z,43.65
2023-02-11T07:58:52.438Z,43.47
2023-02-11T08:01:39.918Z,46.65
2023-02-11T08:04:27.309Z,44.20
2023-02-11T08:07:16.559Z,44.25
2023-02-11T08:10:03.910Z,41.40
2023-02-11T08:12:54.070Z,41.67
2023-02-11T08:15:41.306Z,43.35
2023-02-11T08:18:28.756Z,40.20
2023-02-11T08:21:16.466Z,41.53
2023-02-11T08:24:04.862Z,45.28
2023-02-11T08:26:52.178Z,46.33
2023-02-11T08:29:41.666Z,53.60
2023-02-11T08:32:29.082Z,46.83
2023-02-11T08:35:16.750Z,44.92
2023-02-11T08:38:04.213Z,46.45
2023-02-11T08:40:52.070Z,45.60
2023-02-11T08:43:41.759Z,47.42
2023-02-11T08:46:31.446Z,49.80
2023-02-11T08:49:19.338Z,42.80
2023-02-11T08:52:06.734Z,42.08
2023-02-11T08:54:54.483Z,45.50
2023-02-11T08:57:41.996Z,48.03
2023-02-11T09:00:29.597Z,42.80
2023-02-11T09:03:18.912Z,42.15
2023-02-11T09:06:07.219Z,44.17
2023-02-11T09:08:57.516Z,46.13
2023-02-11T09:11:46.086Z,44.78
2023-02-11T09:14:33.369Z,42.92
2023-02-11T09:17:20.945Z,39.35
2023-02-11T09:20:11.585Z,44.42
2023-02-11T09:23:00.430Z,41.88
2023-02-11T09:25:47.714Z,44.92
2023-02-11T09:28:35.390Z,44.00
2023-02-11T09:31:25.419Z,44.22
2023-02-11T09:34:13.285Z,41.60
2023-02-11T09:37:02.784Z,47.45
2023-02-11T09:39:49.974Z,44.22
2023-02-11T09:42:46.774Z,48.45
2023-02-11T09:45:34.566Z,46.47
2023-02-11T09:48:23.899Z,51.75
2023-02-11T09:51:20.024Z,47.17
2023-02-11T09:54:14.927Z,48.00
2023-02-11T09:57:02.319Z,56.45
2023-02-11T09:59:50.426Z,48.67
2023-02-11T10:02:46.858Z,51.42
2023-02-11T10:05:47.010Z,45.05
2023-02-11T10:08:43.074Z,46.72
2023-02-11T10:11:40.213Z,51.15
2023-02-11T10:14:45.074Z,49.30
2023-02-11T10:17:42.623Z,52.13
2023-02-11T10:20:34.024Z,47.75
2023-02-11T10:23:25.851Z,64.65
2023-02-11T10:26:13.996Z,48.05
2023-02-11T10:29:03.860Z,45.72
2023-02-11T10:31:52.693Z,52.70
2023-02-11T10:34:42.893Z,51.70
2023-02-11T10:37:31.043Z,45.58
2023-02-11T10:40:21.900Z,50.00
2023-02-11T10:43:13.877Z,48.95
2023-02-11T10:46:05.968Z,45.60
2023-02-11T10:48:54.525Z,46.78
2023-02-11T10:51:41.875Z,49.97
2023-02-11T10:54:29.415Z,49.00
2023-02-11T10:57:20.231Z,48.83
2023-02-11T11:00:23.726Z,52.53
2023-02-11T11:03:19.910Z,45.73
2023-02-11T11:06:10.127Z,55.63
2023-02-11T11:08:57.582Z,48.25
2023-02-11T11:11:54.190Z,53.20
2023-02-11T11:14:41.853Z,48.53
2023-02-11T11:17:30.142Z,48.65
2023-02-11T11:20:23.163Z,52.63
2023-02-11T11:23:16.862Z,48.67
2023-02-11T11:26:07.309Z,49.20
2023-02-11T11:28:59.580Z,52.42
2023-02-11T11:31:50.472Z,49.25
2023-02-11T11:34:39.857Z,55.30
2023-02-11T11:37:29.542Z,57.03
2023-02-11T11:40:24.751Z,58.78
2023-02-11T11:43:20.250Z,56.90
2023-02-11T11:46:12.334Z,50.65
2023-02-11T11:49:08.557Z,56.13
2023-02-11T11:52:04.603Z,52.05
2023-02-11T11:55:00.925Z,60.08
2023-02-11T11:57:49.451Z,55.70
2023-02-11T12:00:45.113Z,64.80
2023-02-11T12:04:07.846Z,70.43
2023-02-11T12:07:08.787Z,69.53
2023-02-11T12:10:18.489Z,63.93
2023-02-11T12:13:21.776Z,60.70
2023-02-11T12:16:20.944Z,68.97
2023-02-11T12:19:48.308Z,63.60
2023-02-11T12:22:45.323Z,61.38
2023-02-11T12:25:39.972Z,64.18
2023-02-11T12:28:38.934Z,62.87
2023-02-11T12:31:37.177Z,72.97
2023-02-11T12:34:40.499Z,71.78
2023-02-11T12:37:42.548Z,61.88
2023-02-11T12:40:40.019Z,59.33
2023-02-11T12:43:35.965Z,55.50
2023-02-11T12:46:36.230Z,58.13
2023-02-11T12:49:43.034Z,64.07
2023-02-11T12:52:48.716Z,71.70
2023-02-11T12:55:41.271Z,52.20
2023-02-11T12:58:44.438Z,57.65
2023-02-11T13:01:36.758Z,61.78
2023-02-11T13:04:30.084Z,64.10
2023-02-11T13:07:22.611Z,61.63
2023-02-11T13:10:23.542Z,60.40
2023-02-11T13:13:17.994Z,68.35
2023-02-11T13:16:08.905Z,71.25
2023-02-11T13:19:03.295Z,63.75
2023-02-11T13:22:01.626Z,58.83
2023-02-11T13:24:52.546Z,65.07
2023-02-11T13:27:45.186Z,63.58
2023-02-11T13:30:35.353Z,59.35
2023-02-11T13:33:33.880Z,59.50
2023-02-11T13:36:24.177Z,81.07
2023-02-11T13:39:21.466Z,63.28
2023-02-11T13:42:18.657Z,65.73
2023-02-11T13:45:19.614Z,71.32
2023-02-11T13:48:18.681Z,65.70
2023-02-11T13:51:09.105Z,60.40
2023-02-11T13:54:02.947Z,73.00
2023-02-11T13:57:31.002Z,66.90
2023-02-11T14:00:48.282Z,61.17
2023-02-11T14:03:57.750Z,61.63
2023-02-11T14:07:43.956Z,56.60
2023-02-11T14:10:51.533Z,57.13
2023-02-11T14:14:03.811Z,62.75
2023-02-11T14:17:21.588Z,53.92
2023-02-11T14:20:36.249Z,55.75
2023-02-11T14:23:28.549Z,58.75
2023-02-11T14:26:31.808Z,55.78
2023-02-11T14:29:25.846Z,59.95
2023-02-11T14:32:23.923Z,61.03
2023-02-11T14:35:18.423Z,57.05
2023-02-11T14:38:20.790Z,56.53
2023-02-11T14:41:11.721Z,55.07
2023-02-11T14:44:02.259Z,62.85
2023-02-11T14:46:52.581Z,59.97
2023-02-11T14:49:41.680Z,60.70
2023-02-11T14:52:31.796Z,59.65
2023-02-11T14:55:30.349Z,61.20
2023-02-11T14:58:22.860Z,58.70
2023-02-11T15:01:28.520Z,58.08
2023-02-11T15:04:25.474Z,60.00
2023-02-11T15:07:15.477Z,58.00
2023-02-11T15:10:03.037Z,59.28
2023-02-11T15:12:52.182Z,53.87
2023-02-11T15:15:41.152Z,55.38
2023-02-11T15:18:36.543Z,81.72
2023-02-11T15:21:26.654Z,66.75
2023-02-11T15:24:25.543Z,82.47
2023-02-11T15:27:16.409Z,63.70
2023-02-11T15:30:24.963Z,62.33
2023-02-11T15:33:22.973Z,76.22
2023-02-11T15:36:12.752Z,62.53
2023-02-11T15:39:20.608Z,62.22
2023-02-11T15:42:22.804Z,64.50
2023-02-11T15:45:26.069Z,62.20
2023-02-11T15:48:15.950Z,63.42
2023-02-11T15:51:07.768Z,70.72
2023-02-11T15:53:58.697Z,65.90
2023-02-11T15:56:49.176Z,65.47
2023-02-11T15:59:39.288Z,59.15
2023-02-11T16:02:33.349Z,62.38
2023-02-11T16:05:30.744Z,80.20
2023-02-11T16:08:24.551Z,71.43
2023-02-11T16:11:26.142Z,63.47
2023-02-11T16:14:23.958Z,59.75
2023-02-11T16:17:13.528Z,59.42
2023-02-11T16:20:02.340Z,57.33
2023-02-11T16:22:50.024Z,53.65
2023-02-11T16:25:38.616Z,57.22
2023-02-11T16:28:26.856Z,54.10
2023-02-11T16:31:14.586Z,58.35
2023-02-11T16:34:02.332Z,57.90
2023-02-11T16:36:52.418Z,55.37
2023-02-11T16:39:39.989Z,54.67
2023-02-11T16:42:27.432Z,53.53
2023-02-11T16:45:15.718Z,61.47
2023-02-11T16:48:03.413Z,60.80
2023-02-11T16:50:53.578Z,55.83
2023-02-11T16:53:42.568Z,58.72
2023-02-11T16:56:30.066Z,58.00
2023-02-11T16:59:17.504Z,59.72
2023-02-11T17:02:05.735Z,55.38
2023-02-11T17:04:53.844Z,54.45
2023-02-11T17:07:41.232Z,55.03
2023-02-11T17:10:30.848Z,56.30
2023-02-11T17:13:18.262Z,66.22
2023-02-11T17:16:06.148Z,55.28
2023-02-11T17:18:54.854Z,54.75
2023-02-11T17:21:43.840Z,52.75
2023-02-11T17:24:32.006Z,52.87
2023-02-11T17:27:20.789Z,55.42
2023-02-11T17:30:09.578Z,54.38
2023-02-11T17:32:56.864Z,55.90
2023-02-11T17:35:44.376Z,58.30
2023-02-11T17:38:34.119Z,59.67
2023-02-11T17:41:21.327Z,55.05
2023-02-11T17:44:14.193Z,60.10
2023-02-11T17:47:01.492Z,60.63
2023-02-11T17:49:49.535Z,57.72
2023-02-11T17:52:38.099Z,57.40
2023-02-11T17:55:25.473Z,56.42
2023-02-11T17:58:12.970Z,55.20
2023-02-11T18:01:01.971Z,54.88
2023-02-11T18:03:49.336Z,58.17
2023-02-11T18:06:37.485Z,56.57
2023-02-11T18:09:24.815Z,56.20
2023-02-11T18:12:12.610Z,58.15
2023-02-11T18:15:00.014Z,59.22
2023-02-11T18:17:49.223Z,58.03
2023-02-11T18:20:36.675Z,66.93
2023-02-11T18:23:24.107Z,57.00
2023-02-11T18:26:12.938Z,57.15
2023-02-11T18:29:01.221Z,56.97
2023-02-11T18:31:48.887Z,60.85
2023-02-11T18:34:37.601Z,70.15
2023-02-11T18:37:25.407Z,61.95
2023-02-11T18:40:13.364Z,58.22
2023-02-11T18:43:00.510Z,58.00
2023-02-11T18:45:49.372Z,56.47
2023-02-11T18:48:37.279Z,59.00
2023-02-11T18:51:25.960Z,59.33
2023-02-11T18:54:13.935Z,59.67
2023-02-11T18:57:01.319Z,58.50
2023-02-11T18:59:49.107Z,58.20
2023-02-11T19:02:40.742Z,59.42
2023-02-11T19:05:33.143Z,55.88
2023-02-11T19:08:21.955Z,57.97
2023-02-11T19:11:09.355Z,55.80
2023-02-11T19:13:56.894Z,57.40
2023-02-11T19:16:46.224Z,57.30
2023-02-11T19:19:35.274Z,59.63
2023-02-11T19:22:22.614Z,61.92
2023-02-11T19:25:12.215Z,60.70
2023-02-11T19:28:00.456Z,67.32
2023-02-11T19:30:48.012Z,74.68
2023-02-11T19:33:35.440Z,62.00
2023-02-11T19:36:22.876Z,68.03
2023-02-11T19:39:11.186Z,65.53
2023-02-11T19:41:59.734Z,62.08
2023-02-11T19:44:47.012Z,65.03
2023-02-11T19:47:34.481Z,70.45
2023-02-11T19:50:21.773Z,64.78
2023-02-11T19:53:09.453Z,64.55
2023-02-11T19:55:56.852Z,64.82
2023-02-11T19:58:45.594Z,68.00
2023-02-11T20:01:33.179Z,68.88
2023-02-11T20:04:20.923Z,68.00
2023-02-11T20:07:08.190Z,64.88
2023-02-11T20:09:55.783Z,67.80
2023-02-11T20:12:43.350Z,65.67
2023-02-11T20:15:32.516Z,69.03
2023-02-11T20:18:19.864Z,63.30
2023-02-11T20:21:08.340Z,65.90
2023-02-11T20:23:56.554Z,65.70
2023-02-11T20:26:45.220Z,65.40
2023-02-11T20:29:32.750Z,67.65
2023-02-11T20:32:21.836Z,66.82
2023-02-11T20:35:10.209Z,64.03
2023-02-11T20:37:57.420Z,62.63
2023-02-11T20:40:45.254Z,64.50
2023-02-11T20:43:32.694Z,65.27
2023-02-11T20:46:22.191Z,66.28
2023-02-11T20:49:12.850Z,64.78
2023-02-11T20:52:00.247Z,64.40
2023-02-11T20:54:47.762Z,62.53
2023-02-11T20:57:35.725Z,63.63
2023-02-11T21:00:23.391Z,63.88
2023-02-11T21:03:11.184Z,62.22
2023-02-11T21:06:00.799Z,60.97
2023-02-11T21:08:48.515Z,66.75
2023-02-11T21:11:36.451Z,64.57
2023-02-11T21:14:24.688Z,64.30
2023-02-11T21:17:13.095Z,66.25
2023-02-11T21:20:00.662Z,64.32
2023-02-11T21:22:49.688Z,66.15
2023-02-11T21:25:37.387Z,68.05
2023-02-11T21:28:27.114Z,64.15
2023-02-11T21:31:20.033Z,65.70
2023-02-11T21:34:07.720Z,67.10
2023-02-11T21:36:55.123Z,71.22
2023-02-11T21:39:44.224Z,68.32
2023-02-11T21:42:32.278Z,66.55
2023-02-11T21:45:19.724Z,62.88
2023-02-11T21:48:07.278Z,63.95
2023-02-11T21:50:55.261Z,67.68
2023-02-11T21:53:42.537Z,66.63
2023-02-11T21:56:33.541Z,65.35
2023-02-11T21:59:20.889Z,65.80
2023-02-11T22:02:08.270Z,66.03
2023-02-11T22:04:55.865Z,65.77
2023-02-11T22:07:43.215Z,69.13
2023-02-11T22:10:30.633Z,66.50
2023-02-11T22:13:19.650Z,64.30
2023-02-11T22:16:09.591Z,68.65
2023-02-11T22:18:58.716Z,66.00
2023-02-11T22:21:46.077Z,68.18
2023-02-11T22:24:33.582Z,65.47
2023-02-11T22:27:21.267Z,63.53
2023-02-11T22:30:11.523Z,64.40
2023-02-11T22:32:59.692Z,66.47
2023-02-11T22:35:47.020Z,61.58
2023-02-11T22:38:34.752Z,63.43
2023-02-11T22:41:23.156Z,64.13
2023-02-11T22:44:10.990Z,62.78
2023-02-11T22:47:00.051Z,63.55
2023-02-11T22:49:47.378Z,63.95
2023-02-11T22:52:36.321Z,64.22
2023-02-11T22:55:23.648Z,64.60
2023-02-11T22:58:11.672Z,63.22
2023-02-11T23:00:59.183Z,63.13
2023-02-11T23:03:48.452Z,60.75
2023-02-11T23:06:36.387Z,62.20
2023-02-11T23:09:23.892Z,63.80
2023-02-11T23:12:11.416Z,64.37
2023-02-11T23:14:59.028Z,63.10
2023-02-11T23:17:46.672Z,63.03
2023-02-11T23:20:37.320Z,61.10
2023-02-11T23:23:24.692Z,61.47
2023-02-11T23:26:14.312Z,61.63
2023-02-11T23:29:01.887Z,62.90
2023-02-11T23:31:49.875Z,61.30
2023-02-11T23:34:37.633Z,63.55
2023-02-11T23:37:26.757Z,63.42
2023-02-11T23:40:15.057Z,62.97
2023-02-11T23:43:02.527Z,60.83
2023-02-11T23:45:52.113Z,60.40
2023-02-11T23:48:40.573Z,58.45
2023-02-11T23:51:28.297Z,58.73
2023-02-11T23:54:17.400Z,60.50
2023-02-11T23:57:05.124Z,59.88
2023-02-11T23:59:52.654Z,59.78
